sensor_id;sensor_type;location;lat;lon;timestamp;P1;durP1;ratioP1;P2;durP2;ratioP2
53835;SDS011;39737;43.334;21.936;2023-04-01T00:00:02;4.95;;;2.58;;
53835;SDS011;39737;43.334;21.936;2023-04-01T00:02:56;10.77;;;3.65;;
53835;SDS011;39737;43.334;21.936;2023-04-01T00:05:42;9.07;;;3.03;;
53835;SDS011;39737;43.334;21.936;2023-04-01T00:08:29;11.10;;;2.65;;
53835;SDS011;39737;43.334;21.936;2023-04-01T00:11:16;7.90;;;3.50;;
53835;SDS011;39737;43.334;21.936;2023-04-01T00:14:05;12.95;;;3.17;;
53835;SDS011;39737;43.334;21.936;2023-04-01T00:16:51;9.82;;;3.58;;
53835;SDS011;39737;43.334;21.936;2023-04-01T00:19:38;10.00;;;4.28;;
53835;SDS011;39737;43.334;21.936;2023-04-01T00:22:25;10.95;;;4.60;;
53835;SDS011;39737;43.334;21.936;2023-04-01T00:25:12;9.80;;;3.47;;
53835;SDS011;39737;43.334;21.936;2023-04-01T00:27:58;3.70;;;1.83;;
53835;SDS011;39737;43.334;21.936;2023-04-01T00:30:45;6.45;;;2.55;;
53835;SDS011;39737;43.334;21.936;2023-04-01T00:33:31;3.35;;;1.98;;
53835;SDS011;39737;43.334;21.936;2023-04-01T00:36:19;8.48;;;1.65;;
53835;SDS011;39737;43.334;21.936;2023-04-01T00:39:06;4.75;;;2.50;;
53835;SDS011;39737;43.334;21.936;2023-04-01T00:41:53;13.60;;;2.58;;
53835;SDS011;39737;43.334;21.936;2023-04-01T00:44:40;13.25;;;3.05;;
53835;SDS011;39737;43.334;21.936;2023-04-01T00:47:27;8.20;;;2.33;;
53835;SDS011;39737;43.334;21.936;2023-04-01T00:50:13;6.93;;;2.40;;
53835;SDS011;39737;43.334;21.936;2023-04-01T00:53:00;7.20;;;2.35;;
53835;SDS011;39737;43.334;21.936;2023-04-01T00:58:52;8.07;;;2.85;;
53835;SDS011;39737;43.334;21.936;2023-04-01T01:01:59;5.13;;;2.00;;
53835;SDS011;39737;43.334;21.936;2023-04-01T01:04:47;8.02;;;2.72;;
53835;SDS011;39737;43.334;21.936;2023-04-01T01:10:30;5.22;;;2.13;;
53835;SDS011;39737;43.334;21.936;2023-04-01T01:13:20;0.65;;;0.63;;
53835;SDS011;39737;43.334;21.936;2023-04-01T01:16:15;6.93;;;2.38;;
53835;SDS011;39737;43.334;21.936;2023-04-01T01:27:47;4.85;;;1.85;;
53835;SDS011;39737;43.334;21.936;2023-04-01T01:30:39;7.38;;;2.05;;
53835;SDS011;39737;43.334;21.936;2023-04-01T01:33:33;10.95;;;2.28;;
53835;SDS011;39737;43.334;21.936;2023-04-01T01:36:21;0.65;;;0.65;;
53835;SDS011;39737;43.334;21.936;2023-04-01T01:39:09;11.00;;;2.90;;
53835;SDS011;39737;43.334;21.936;2023-04-01T01:41:56;2.55;;;1.83;;
53835;SDS011;39737;43.334;21.936;2023-04-01T01:44:45;0.35;;;0.35;;
53835;SDS011;39737;43.334;21.936;2023-04-01T01:47:33;5.40;;;1.65;;
53835;SDS011;39737;43.334;21.936;2023-04-01T01:50:21;11.27;;;1.75;;
53835;SDS011;39737;43.334;21.936;2023-04-01T01:53:10;0.20;;;0.20;;
53835;SDS011;39737;43.334;21.936;2023-04-01T01:55:57;3.67;;;1.70;;
53835;SDS011;39737;43.334;21.936;2023-04-01T01:58:45;1.00;;;1.00;;
53835;SDS011;39737;43.334;21.936;2023-04-01T02:01:35;6.00;;;1.85;;
53835;SDS011;39737;43.334;21.936;2023-04-01T02:04:30;3.97;;;2.05;;
53835;SDS011;39737;43.334;21.936;2023-04-01T02:07:21;6.45;;;2.38;;
53835;SDS011;39737;43.334;21.936;2023-04-01T02:10:08;2.55;;;0.85;;
53835;SDS011;39737;43.334;21.936;2023-04-01T02:12:57;9.55;;;2.35;;
53835;SDS011;39737;43.334;21.936;2023-04-01T02:15:46;4.85;;;1.77;;
53835;SDS011;39737;43.334;21.936;2023-04-01T02:18:33;5.63;;;2.40;;
53835;SDS011;39737;43.334;21.936;2023-04-01T02:21:22;15.00;;;5.38;;
53835;SDS011;39737;43.334;21.936;2023-04-01T02:24:12;2.78;;;2.40;;
53835;SDS011;39737;43.334;21.936;2023-04-01T02:26:59;8.05;;;3.53;;
53835;SDS011;39737;43.334;21.936;2023-04-01T02:29:46;3.63;;;2.15;;
53835;SDS011;39737;43.334;21.936;2023-04-01T02:32:33;8.85;;;2.53;;
53835;SDS011;39737;43.334;21.936;2023-04-01T02:35:19;7.20;;;1.75;;
53835;SDS011;39737;43.334;21.936;2023-04-01T02:38:06;2.00;;;1.90;;
53835;SDS011;39737;43.334;21.936;2023-04-01T02:40:57;8.80;;;2.45;;
53835;SDS011;39737;43.334;21.936;2023-04-01T02:43:43;6.75;;;1.88;;
53835;SDS011;39737;43.334;21.936;2023-04-01T02:46:30;1.92;;;0.60;;
53835;SDS011;39737;43.334;21.936;2023-04-01T02:49:16;9.52;;;2.05;;
53835;SDS011;39737;43.334;21.936;2023-04-01T02:52:02;6.53;;;1.92;;
53835;SDS011;39737;43.334;21.936;2023-04-01T02:54:48;15.25;;;2.20;;
53835;SDS011;39737;43.334;21.936;2023-04-01T02:57:35;3.50;;;1.80;;
53835;SDS011;39737;43.334;21.936;2023-04-01T03:00:21;7.47;;;3.00;;
53835;SDS011;39737;43.334;21.936;2023-04-01T03:03:26;10.50;;;3.95;;
53835;SDS011;39737;43.334;21.936;2023-04-01T03:06:13;17.08;;;3.75;;
53835;SDS011;39737;43.334;21.936;2023-04-01T03:08:59;9.05;;;3.55;;
53835;SDS011;39737;43.334;21.936;2023-04-01T03:11:45;11.75;;;4.88;;
53835;SDS011;39737;43.334;21.936;2023-04-01T03:14:32;15.75;;;5.70;;
53835;SDS011;39737;43.334;21.936;2023-04-01T03:17:18;16.15;;;5.97;;
53835;SDS011;39737;43.334;21.936;2023-04-01T03:20:07;1.35;;;1.25;;
53835;SDS011;39737;43.334;21.936;2023-04-01T03:22:56;16.60;;;5.45;;
53835;SDS011;39737;43.334;21.936;2023-04-01T03:25:45;10.13;;;3.88;;
53835;SDS011;39737;43.334;21.936;2023-04-01T03:28:33;3.90;;;1.75;;
53835;SDS011;39737;43.334;21.936;2023-04-01T03:31:19;4.82;;;1.90;;
53835;SDS011;39737;43.334;21.936;2023-04-01T03:34:11;0.40;;;0.40;;
53835;SDS011;39737;43.334;21.936;2023-04-01T03:36:58;9.30;;;3.50;;
53835;SDS011;39737;43.334;21.936;2023-04-01T03:39:44;14.85;;;2.67;;
53835;SDS011;39737;43.334;21.936;2023-04-01T03:42:31;21.05;;;7.05;;
53835;SDS011;39737;43.334;21.936;2023-04-01T03:45:18;6.15;;;3.28;;
53835;SDS011;39737;43.334;21.936;2023-04-01T03:48:04;0.47;;;0.43;;
53835;SDS011;39737;43.334;21.936;2023-04-01T03:50:51;5.70;;;1.90;;
53835;SDS011;39737;43.334;21.936;2023-04-01T03:53:37;5.00;;;2.17;;
53835;SDS011;39737;43.334;21.936;2023-04-01T03:56:24;0.40;;;0.30;;
53835;SDS011;39737;43.334;21.936;2023-04-01T03:59:10;8.10;;;1.88;;
53835;SDS011;39737;43.334;21.936;2023-04-01T04:01:57;5.88;;;2.00;;
53835;SDS011;39737;43.334;21.936;2023-04-01T04:04:44;4.47;;;1.60;;
53835;SDS011;39737;43.334;21.936;2023-04-01T04:07:33;5.65;;;1.42;;
53835;SDS011;39737;43.334;21.936;2023-04-01T04:10:23;8.52;;;2.10;;
53835;SDS011;39737;43.334;21.936;2023-04-01T04:13:10;0.35;;;0.35;;
53835;SDS011;39737;43.334;21.936;2023-04-01T04:16:03;3.25;;;1.50;;
53835;SDS011;39737;43.334;21.936;2023-04-01T04:18:52;6.63;;;2.38;;
53835;SDS011;39737;43.334;21.936;2023-04-01T04:21:56;0.80;;;0.68;;
53835;SDS011;39737;43.334;21.936;2023-04-01T04:24:43;4.85;;;1.88;;
53835;SDS011;39737;43.334;21.936;2023-04-01T04:27:31;6.90;;;2.25;;
53835;SDS011;39737;43.334;21.936;2023-04-01T04:30:25;6.75;;;1.63;;
53835;SDS011;39737;43.334;21.936;2023-04-01T04:33:11;4.22;;;1.55;;
53835;SDS011;39737;43.334;21.936;2023-04-01T04:35:58;1.38;;;1.27;;
53835;SDS011;39737;43.334;21.936;2023-04-01T04:38:44;10.93;;;1.85;;
53835;SDS011;39737;43.334;21.936;2023-04-01T04:41:49;5.43;;;1.60;;
53835;SDS011;39737;43.334;21.936;2023-04-01T04:44:35;2.47;;;1.70;;
53835;SDS011;39737;43.334;21.936;2023-04-01T04:47:21;4.80;;;1.52;;
53835;SDS011;39737;43.334;21.936;2023-04-01T04:50:07;6.03;;;1.77;;
53835;SDS011;39737;43.334;21.936;2023-04-01T04:52:55;6.28;;;0.40;;
53835;SDS011;39737;43.334;21.936;2023-04-01T04:55:48;3.30;;;1.58;;
53835;SDS011;39737;43.334;21.936;2023-04-01T04:58:47;5.78;;;1.85;;
53835;SDS011;39737;43.334;21.936;2023-04-01T05:01:37;4.00;;;1.70;;
53835;SDS011;39737;43.334;21.936;2023-04-01T05:04:24;5.78;;;2.05;;
53835;SDS011;39737;43.334;21.936;2023-04-01T05:07:10;5.07;;;2.15;;
53835;SDS011;39737;43.334;21.936;2023-04-01T05:09:56;9.45;;;2.63;;
53835;SDS011;39737;43.334;21.936;2023-04-01T05:12:43;16.40;;;5.28;;
53835;SDS011;39737;43.334;21.936;2023-04-01T05:15:34;20.20;;;3.47;;
53835;SDS011;39737;43.334;21.936;2023-04-01T05:18:21;6.43;;;3.65;;
53835;SDS011;39737;43.334;21.936;2023-04-01T05:21:08;18.23;;;8.38;;
53835;SDS011;39737;43.334;21.936;2023-04-01T05:23:55;19.75;;;6.72;;
53835;SDS011;39737;43.334;21.936;2023-04-01T05:26:42;11.65;;;4.47;;
53835;SDS011;39737;43.334;21.936;2023-04-01T05:29:29;10.55;;;4.68;;
53835;SDS011;39737;43.334;21.936;2023-04-01T05:32:22;7.00;;;3.83;;
53835;SDS011;39737;43.334;21.936;2023-04-01T05:35:08;17.77;;;4.28;;
53835;SDS011;39737;43.334;21.936;2023-04-01T05:37:54;6.50;;;2.58;;
53835;SDS011;39737;43.334;21.936;2023-04-01T05:40:41;5.10;;;2.22;;
53835;SDS011;39737;43.334;21.936;2023-04-01T05:43:46;5.63;;;2.90;;
53835;SDS011;39737;43.334;21.936;2023-04-01T05:46:52;6.00;;;3.30;;
53835;SDS011;39737;43.334;21.936;2023-04-01T05:49:41;15.25;;;9.20;;
53835;SDS011;39737;43.334;21.936;2023-04-01T05:52:27;15.73;;;6.38;;
53835;SDS011;39737;43.334;21.936;2023-04-01T05:55:13;1.20;;;1.08;;
53835;SDS011;39737;43.334;21.936;2023-04-01T05:57:59;1.85;;;1.27;;
53835;SDS011;39737;43.334;21.936;2023-04-01T06:00:47;11.30;;;4.68;;
53835;SDS011;39737;43.334;21.936;2023-04-01T06:03:47;0.95;;;0.90;;
53835;SDS011;39737;43.334;21.936;2023-04-01T06:06:33;8.05;;;4.32;;
53835;SDS011;39737;43.334;21.936;2023-04-01T06:09:26;6.45;;;3.47;;
53835;SDS011;39737;43.334;21.936;2023-04-01T06:12:34;4.28;;;2.40;;
53835;SDS011;39737;43.334;21.936;2023-04-01T06:18:33;8.13;;;5.45;;
53835;SDS011;39737;43.334;21.936;2023-04-01T06:24:22;0.82;;;0.82;;
53835;SDS011;39737;43.334;21.936;2023-04-01T06:27:16;16.45;;;9.38;;
53835;SDS011;39737;43.334;21.936;2023-04-01T06:30:10;25.35;;;5.03;;
53835;SDS011;39737;43.334;21.936;2023-04-01T06:36:39;11.90;;;4.03;;
53835;SDS011;39737;43.334;21.936;2023-04-01T06:42:56;13.20;;;4.82;;
53835;SDS011;39737;43.334;21.936;2023-04-01T06:46:11;14.90;;;7.60;;
53835;SDS011;39737;43.334;21.936;2023-04-01T06:49:36;35.47;;;13.02;;
53835;SDS011;39737;43.334;21.936;2023-04-01T06:52:55;30.90;;;12.82;;
53835;SDS011;39737;43.334;21.936;2023-04-01T06:56:04;42.42;;;16.75;;
53835;SDS011;39737;43.334;21.936;2023-04-01T06:59:45;42.30;;;17.92;;
53835;SDS011;39737;43.334;21.936;2023-04-01T07:02:38;33.33;;;14.55;;
53835;SDS011;39737;43.334;21.936;2023-04-01T07:05:29;31.50;;;14.02;;
53835;SDS011;39737;43.334;21.936;2023-04-01T07:08:20;22.77;;;11.25;;
53835;SDS011;39737;43.334;21.936;2023-04-01T07:11:11;22.55;;;11.05;;
53835;SDS011;39737;43.334;21.936;2023-04-01T07:14:22;26.65;;;12.50;;
53835;SDS011;39737;43.334;21.936;2023-04-01T07:17:17;24.88;;;9.68;;
53835;SDS011;39737;43.334;21.936;2023-04-01T07:23:22;32.25;;;12.35;;
53835;SDS011;39737;43.334;21.936;2023-04-01T07:26:19;51.35;;;21.05;;
53835;SDS011;39737;43.334;21.936;2023-04-01T07:29:13;51.70;;;18.58;;
53835;SDS011;39737;43.334;21.936;2023-04-01T07:35:16;47.83;;;17.60;;
53835;SDS011;39737;43.334;21.936;2023-04-01T07:41:04;38.35;;;14.82;;
53835;SDS011;39737;43.334;21.936;2023-04-01T07:44:11;16.92;;;6.35;;
53835;SDS011;39737;43.334;21.936;2023-04-01T07:49:49;10.27;;;5.40;;
53835;SDS011;39737;43.334;21.936;2023-04-01T07:55:52;10.88;;;3.15;;
53835;SDS011;39737;43.334;21.936;2023-04-01T08:04:39;8.18;;;3.00;;
53835;SDS011;39737;43.334;21.936;2023-04-01T08:07:35;12.00;;;3.25;;
53835;SDS011;39737;43.334;21.936;2023-04-01T08:16:52;9.73;;;3.10;;
53835;SDS011;39737;43.334;21.936;2023-04-01T08:19:56;1.27;;;1.17;;
53835;SDS011;39737;43.334;21.936;2023-04-01T08:22:53;8.88;;;3.03;;
53835;SDS011;39737;43.334;21.936;2023-04-01T08:26:00;11.15;;;4.43;;
53835;SDS011;39737;43.334;21.936;2023-04-01T08:28:54;8.02;;;4.15;;
53835;SDS011;39737;43.334;21.936;2023-04-01T08:34:39;8.88;;;4.55;;
53835;SDS011;39737;43.334;21.936;2023-04-01T08:37:35;18.70;;;7.10;;
53835;SDS011;39737;43.334;21.936;2023-04-01T08:45:02;11.30;;;5.07;;
53835;SDS011;39737;43.334;21.936;2023-04-01T09:12:31;10.35;;;5.00;;
53835;SDS011;39737;43.334;21.936;2023-04-01T09:15:54;12.48;;;3.22;;
53835;SDS011;39737;43.334;21.936;2023-04-01T09:44:59;22.13;;;11.43;;
53835;SDS011;39737;43.334;21.936;2023-04-01T09:50:47;44.83;;;19.17;;
53835;SDS011;39737;43.334;21.936;2023-04-01T09:53:41;34.63;;;13.38;;
53835;SDS011;39737;43.334;21.936;2023-04-01T09:59:39;16.38;;;6.72;;
53835;SDS011;39737;43.334;21.936;2023-04-01T10:03:10;20.05;;;6.68;;
53835;SDS011;39737;43.334;21.936;2023-04-01T10:06:18;21.70;;;8.25;;
53835;SDS011;39737;43.334;21.936;2023-04-01T10:24:27;6.78;;;3.75;;
53835;SDS011;39737;43.334;21.936;2023-04-01T10:36:50;1.55;;;1.45;;
53835;SDS011;39737;43.334;21.936;2023-04-01T10:59:00;2.65;;;2.05;;
53835;SDS011;39737;43.334;21.936;2023-04-01T11:12:27;11.02;;;5.30;;
53835;SDS011;39737;43.334;21.936;2023-04-01T11:25:17;9.18;;;5.22;;
53835;SDS011;39737;43.334;21.936;2023-04-01T11:35:52;7.68;;;3.50;;
53835;SDS011;39737;43.334;21.936;2023-04-01T11:42:22;12.73;;;4.80;;
53835;SDS011;39737;43.334;21.936;2023-04-01T11:48:36;14.25;;;6.82;;
53835;SDS011;39737;43.334;21.936;2023-04-01T11:51:31;11.38;;;5.10;;
53835;SDS011;39737;43.334;21.936;2023-04-01T12:00:24;45.42;;;14.73;;
53835;SDS011;39737;43.334;21.936;2023-04-01T12:15:20;6.70;;;3.83;;
53835;SDS011;39737;43.334;21.936;2023-04-01T12:21:11;8.65;;;5.15;;
53835;SDS011;39737;43.334;21.936;2023-04-01T12:35:47;23.15;;;7.60;;
53835;SDS011;39737;43.334;21.936;2023-04-01T12:44:23;28.23;;;10.77;;
53835;SDS011;39737;43.334;21.936;2023-04-01T12:56:06;24.90;;;11.45;;
53835;SDS011;39737;43.334;21.936;2023-04-01T12:59:39;12.13;;;5.70;;
53835;SDS011;39737;43.334;21.936;2023-04-01T13:18:05;23.42;;;12.20;;
53835;SDS011;39737;43.334;21.936;2023-04-01T13:24:11;2.50;;;1.00;;
53835;SDS011;39737;43.334;21.936;2023-04-01T13:27:17;1.58;;;1.38;;
53835;SDS011;39737;43.334;21.936;2023-04-01T13:42:24;1.40;;;1.02;;
53835;SDS011;39737;43.334;21.936;2023-04-01T13:45:22;0.40;;;0.40;;
53835;SDS011;39737;43.334;21.936;2023-04-01T13:48:25;0.88;;;0.88;;
53835;SDS011;39737;43.334;21.936;2023-04-01T13:54:23;0.70;;;0.70;;
53835;SDS011;39737;43.334;21.936;2023-04-01T14:09:45;9.13;;;0.73;;
53835;SDS011;39737;43.334;21.936;2023-04-01T14:45:12;0.30;;;0.30;;
53835;SDS011;39737;43.334;21.936;2023-04-01T14:50:53;1.95;;;0.82;;
53835;SDS011;39737;43.334;21.936;2023-04-01T14:53:41;0.50;;;0.50;;
53835;SDS011;39737;43.334;21.936;2023-04-01T14:56:39;7.88;;;1.05;;
53835;SDS011;39737;43.334;21.936;2023-04-01T14:59:27;0.85;;;0.85;;
53835;SDS011;39737;43.334;21.936;2023-04-01T15:14:06;0.82;;;0.68;;
53835;SDS011;39737;43.334;21.936;2023-04-01T15:20:00;0.55;;;0.55;;
53835;SDS011;39737;43.334;21.936;2023-04-01T15:29:01;1.75;;;0.88;;
53835;SDS011;39737;43.334;21.936;2023-04-01T15:32:00;0.50;;;0.50;;
53835;SDS011;39737;43.334;21.936;2023-04-01T15:37:39;0.70;;;0.65;;
53835;SDS011;39737;43.334;21.936;2023-04-01T15:43:49;2.28;;;2.05;;
53835;SDS011;39737;43.334;21.936;2023-04-01T15:46:46;4.30;;;2.15;;
53835;SDS011;39737;43.334;21.936;2023-04-01T15:49:39;1.90;;;1.65;;
53835;SDS011;39737;43.334;21.936;2023-04-01T15:59:03;15.18;;;2.22;;
53835;SDS011;39737;43.334;21.936;2023-04-01T16:05:03;25.35;;;12.02;;
53835;SDS011;39737;43.334;21.936;2023-04-01T16:14:18;6.75;;;4.45;;
53835;SDS011;39737;43.334;21.936;2023-04-01T16:23:42;4.80;;;3.50;;
53835;SDS011;39737;43.334;21.936;2023-04-01T16:26:43;3.25;;;1.90;;
53835;SDS011;39737;43.334;21.936;2023-04-01T16:29:49;13.10;;;7.40;;
53835;SDS011;39737;43.334;21.936;2023-04-01T16:32:43;4.18;;;3.13;;
53835;SDS011;39737;43.334;21.936;2023-04-01T16:45:15;4.47;;;2.95;;
53835;SDS011;39737;43.334;21.936;2023-04-01T16:48:07;0.75;;;0.75;;
53835;SDS011;39737;43.334;21.936;2023-04-01T16:50:59;0.93;;;0.93;;
53835;SDS011;39737;43.334;21.936;2023-04-01T16:54:05;1.25;;;1.15;;
53835;SDS011;39737;43.334;21.936;2023-04-01T16:57:16;6.43;;;3.30;;
53835;SDS011;39737;43.334;21.936;2023-04-01T17:09:23;2.42;;;2.22;;
53835;SDS011;39737;43.334;21.936;2023-04-01T17:12:14;3.60;;;2.78;;
53835;SDS011;39737;43.334;21.936;2023-04-01T17:30:35;45.78;;;21.85;;
53835;SDS011;39737;43.334;21.936;2023-04-01T17:36:33;5.05;;;4.07;;
53835;SDS011;39737;43.334;21.936;2023-04-01T17:42:42;20.67;;;10.38;;
53835;SDS011;39737;43.334;21.936;2023-04-01T17:48:56;14.57;;;6.72;;
53835;SDS011;39737;43.334;21.936;2023-04-01T17:51:55;2.38;;;2.20;;
53835;SDS011;39737;43.334;21.936;2023-04-01T17:55:05;2.17;;;1.98;;
53835;SDS011;39737;43.334;21.936;2023-04-01T18:10:02;29.50;;;12.60;;
53835;SDS011;39737;43.334;21.936;2023-04-01T18:15:55;3.17;;;2.33;;
53835;SDS011;39737;43.334;21.936;2023-04-01T18:19:06;19.83;;;8.07;;
53835;SDS011;39737;43.334;21.936;2023-04-01T18:21:56;6.03;;;2.90;;
53835;SDS011;39737;43.334;21.936;2023-04-01T18:25:18;1.33;;;1.23;;
53835;SDS011;39737;43.334;21.936;2023-04-01T18:28:15;2.88;;;2.10;;
53835;SDS011;39737;43.334;21.936;2023-04-01T18:33:58;1.48;;;1.38;;
53835;SDS011;39737;43.334;21.936;2023-04-01T18:36:55;1.58;;;1.48;;
53835;SDS011;39737;43.334;21.936;2023-04-01T18:46:16;2.08;;;1.50;;
53835;SDS011;39737;43.334;21.936;2023-04-01T18:49:16;19.77;;;9.20;;
53835;SDS011;39737;43.334;21.936;2023-04-01T18:52:13;5.05;;;2.08;;
53835;SDS011;39737;43.334;21.936;2023-04-01T18:57:52;7.75;;;4.32;;
53835;SDS011;39737;43.334;21.936;2023-04-01T19:01:26;4.13;;;3.15;;
53835;SDS011;39737;43.334;21.936;2023-04-01T19:04:09;26.90;;;11.85;;
53835;SDS011;39737;43.334;21.936;2023-04-01T19:06:57;4.68;;;2.25;;
53835;SDS011;39737;43.334;21.936;2023-04-01T19:09:44;6.05;;;3.30;;
53835;SDS011;39737;43.334;21.936;2023-04-01T19:15:56;41.20;;;18.98;;
53835;SDS011;39737;43.334;21.936;2023-04-01T19:21:55;11.73;;;3.00;;
53835;SDS011;39737;43.334;21.936;2023-04-01T19:33:22;10.30;;;6.15;;
53835;SDS011;39737;43.334;21.936;2023-04-01T19:36:27;1.33;;;1.13;;
53835;SDS011;39737;43.334;21.936;2023-04-01T19:39:31;4.85;;;1.48;;
53835;SDS011;39737;43.334;21.936;2023-04-01T19:42:43;1.95;;;1.85;;
53835;SDS011;39737;43.334;21.936;2023-04-01T19:48:35;4.72;;;3.28;;
53835;SDS011;39737;43.334;21.936;2023-04-01T19:51:30;2.88;;;2.58;;
53835;SDS011;39737;43.334;21.936;2023-04-01T19:57:10;6.40;;;2.35;;
53835;SDS011;39737;43.334;21.936;2023-04-01T20:03:04;3.83;;;1.67;;
53835;SDS011;39737;43.334;21.936;2023-04-01T20:14:43;1.63;;;1.52;;
53835;SDS011;39737;43.334;21.936;2023-04-01T20:20:21;6.72;;;2.53;;
53835;SDS011;39737;43.334;21.936;2023-04-01T20:26:39;2.70;;;1.92;;
53835;SDS011;39737;43.334;21.936;2023-04-01T20:35:37;1.05;;;1.05;;
53835;SDS011;39737;43.334;21.936;2023-04-01T20:44:14;2.47;;;1.55;;
53835;SDS011;39737;43.334;21.936;2023-04-01T20:49:59;1.55;;;1.25;;
53835;SDS011;39737;43.334;21.936;2023-04-01T20:55:51;1.75;;;1.65;;
53835;SDS011;39737;43.334;21.936;2023-04-01T21:07:48;3.30;;;2.45;;
53835;SDS011;39737;43.334;21.936;2023-04-01T21:16:53;3.72;;;2.55;;
53835;SDS011;39737;43.334;21.936;2023-04-01T21:28:26;1.08;;;1.02;;
53835;SDS011;39737;43.334;21.936;2023-04-01T21:34:03;4.60;;;3.03;;
53835;SDS011;39737;43.334;21.936;2023-04-01T21:42:56;5.97;;;3.85;;
53835;SDS011;39737;43.334;21.936;2023-04-01T22:07:08;0.50;;;0.50;;
53835;SDS011;39737;43.334;21.936;2023-04-01T22:15:27;0.70;;;0.70;;
53835;SDS011;39737;43.334;21.936;2023-04-01T22:18:19;0.60;;;0.60;;
53835;SDS011;39737;43.334;21.936;2023-04-01T22:24:04;0.80;;;0.80;;
53835;SDS011;39737;43.334;21.936;2023-04-01T22:32:45;8.05;;;2.33;;
53835;SDS011;39737;43.334;21.936;2023-04-01T22:35:54;0.45;;;0.45;;
53835;SDS011;39737;43.334;21.936;2023-04-01T22:39:01;2.03;;;1.85;;
53835;SDS011;39737;43.334;21.936;2023-04-01T22:41:56;0.70;;;0.70;;
53835;SDS011;39737;43.334;21.936;2023-04-01T22:50:43;1.00;;;1.00;;
53835;SDS011;39737;43.334;21.936;2023-04-01T22:56:40;1.20;;;1.20;;
53835;SDS011;39737;43.334;21.936;2023-04-01T22:59:35;4.05;;;1.55;;
53835;SDS011;39737;43.334;21.936;2023-04-01T23:02:23;0.98;;;0.90;;
53835;SDS011;39737;43.334;21.936;2023-04-01T23:05:13;0.88;;;0.88;;
53835;SDS011;39737;43.334;21.936;2023-04-01T23:10:57;4.65;;;1.15;;
53835;SDS011;39737;43.334;21.936;2023-04-01T23:13:45;1.73;;;1.63;;
53835;SDS011;39737;43.334;21.936;2023-04-01T23:16:39;9.45;;;4.57;;
53835;SDS011;39737;43.334;21.936;2023-04-01T23:31:00;1.30;;;1.20;;
53835;SDS011;39737;43.334;21.936;2023-04-01T23:33:50;5.10;;;2.88;;
53835;SDS011;39737;43.334;21.936;2023-04-01T23:36:39;1.33;;;1.33;;
53835;SDS011;39737;43.334;21.936;2023-04-01T23:39:29;0.60;;;0.60;;
53835;SDS011;39737;43.334;21.936;2023-04-01T23:42:27;1.05;;;1.05;;
53835;SDS011;39737;43.334;21.936;2023-04-01T23:45:16;1.30;;;1.30;;
53835;SDS011;39737;43.334;21.936;2023-04-01T23:48:05;7.30;;;2.25;;
53835;SDS011;39737;43.334;21.936;2023-04-01T23:50:51;1.20;;;1.20;;
53835;SDS011;39737;43.334;21.936;2023-04-01T23:53:41;5.25;;;2.30;;
53835;SDS011;39737;43.334;21.936;2023-04-01T23:56:40;17.63;;;9.00;;
53835;SDS011;39737;43.334;21.936;2023-04-01T23:59:30;3.00;;;2.70;;
